Time;durP1;ratioP1;P1;durP2;ratioP2;P2;SDS_P1;SDS_P2;PMS_P1;PMS_P2;Temp;Humidity;BMP_temperature;BMP_pressure;BME280_temperature;BME280_humidity;BME280_pressure;Samples;Min_cycle;Max_cycle;Signal;HPM_P1;HPM_P2
2022/01/26 00:06:44;;;;;;;15.52;7.57;;;;;;;;;;5095173;28;20040;-73
2022/01/26 00:09:11;;;;;;;16.92;8.43;;;;;;;;;;5094796;28;20020;-75
2022/01/26 00:11:37;;;;;;;15.68;8.23;;;;;;;;;;5094699;28;20491;-73
2022/01/26 00:14:09;;;;;;;17.35;7.80;;;;;;;;;;5093461;28;20020;-75
2022/01/26 00:16:43;;;;;;;17.77;8.48;;;;;;;;;;5093376;28;20054;-74
2022/01/26 00:19:14;;;;;;;16.20;8.18;;;;;;;;;;5092705;28;20392;-73
2022/01/26 00:21:47;;;;;;;13.95;7.90;;;;;;;;;;5095027;28;20027;-74
2022/01/26 00:27:08;;;;;;;13.88;7.85;;;;;;;;;;5073078;28;20564;-75
2022/01/26 00:29:39;;;;;;;13.85;7.30;;;;;;;;;;5095039;28;20023;-76
2022/01/26 00:43:00;;;;;;;15.02;8.23;;;;;;;;;;5095068;28;20039;-74
2022/01/26 00:45:33;;;;;;;15.95;8.52;;;;;;;;;;5092885;28;20438;-76
2022/01/26 00:48:03;;;;;;;16.05;7.70;;;;;;;;;;5094323;28;20020;-77
2022/01/26 00:50:30;;;;;;;15.55;7.50;;;;;;;;;;5094097;28;20016;-76
2022/01/26 00:52:56;;;;;;;18.85;9.18;;;;;;;;;;5094270;28;20024;-74
2022/01/26 00:55:22;;;;;;;16.88;8.63;;;;;;;;;;5092683;28;20024;-75
2022/01/26 00:57:48;;;;;;;15.90;8.23;;;;;;;;;;5094496;28;20050;-75
2022/01/26 01:00:16;;;;;;;18.70;8.95;;;;;;;;;;5092690;28;20026;-75
2022/01/26 01:02:43;;;;;;;16.27;8.63;;;;;;;;;;5092563;28;20434;-75
2022/01/26 01:05:22;;;;;;;18.35;8.68;;;;;;;;;;5094427;28;20025;-75
2022/01/26 01:07:51;;;;;;;17.58;8.55;;;;;;;;;;5094315;28;20421;-75
2022/01/26 01:10:20;;;;;;;16.17;8.25;;;;;;;;;;5092456;28;20555;-75
2022/01/26 01:12:49;;;;;;;17.05;8.73;;;;;;;;;;5092412;28;20089;-72
2022/01/26 01:15:15;;;;;;;17.70;8.23;;;;;;;;;;5093919;28;20062;-74
2022/01/26 01:17:47;;;;;;;17.75;9.13;;;;;;;;;;5094121;28;20453;-74
2022/01/26 01:23:31;;;;;;;18.00;8.30;;;;;;;;;;5071915;28;20101;-75
2022/01/26 01:30:53;;;;;;;16.73;8.35;;;;;;;;;;5093158;28;20171;-74
2022/01/26 01:33:25;;;;;;;15.27;8.30;;;;;;;;;;5093486;28;20049;-75
2022/01/26 01:35:52;;;;;;;19.67;8.63;;;;;;;;;;5094024;28;20017;-75
2022/01/26 01:38:20;;;;;;;15.98;7.85;;;;;;;;;;5094151;28;20032;-76
2022/01/26 01:40:47;;;;;;;14.88;8.05;;;;;;;;;;5092172;28;20599;-75
2022/01/26 01:43:14;;;;;;;19.08;8.23;;;;;;;;;;5091986;28;20028;-76
2022/01/26 01:45:43;;;;;;;16.45;8.25;;;;;;;;;;5092118;28;20021;-73
2022/01/26 01:48:11;;;;;;;15.68;7.75;;;;;;;;;;5093302;28;20032;-75
2022/01/26 01:50:41;;;;;;;15.30;8.43;;;;;;;;;;5093286;28;20141;-74
2022/01/26 01:53:11;;;;;;;16.65;7.68;;;;;;;;;;5092049;28;20024;-75
2022/01/26 01:55:41;;;;;;;15.32;8.10;;;;;;;;;;5091952;28;20536;-75
2022/01/26 01:58:07;;;;;;;13.57;7.25;;;;;;;;;;5093247;28;20492;-74
2022/01/26 02:00:33;;;;;;;16.30;8.20;;;;;;;;;;5091905;28;20396;-74
2022/01/26 02:03:00;;;;;;;16.10;7.97;;;;;;;;;;5091888;28;20032;-74
2022/01/26 02:05:26;;;;;;;14.90;7.90;;;;;;;;;;5093354;28;20025;-75
2022/01/26 02:07:53;;;;;;;15.70;8.30;;;;;;;;;;5091884;28;20028;-74
2022/01/26 02:10:22;;;;;;;15.40;7.88;;;;;;;;;;5091884;28;20020;-76
2022/01/26 02:12:52;;;;;;;17.92;8.43;;;;;;;;;;5091716;28;20024;-74
2022/01/26 02:15:27;;;;;;;14.77;8.15;;;;;;;;;;5091819;28;20073;-75
2022/01/26 02:51:02;;;;;;;17.17;8.48;;;;;;;;;;5096658;28;20039;-76
2022/01/26 02:55:56;;;;;;;19.38;9.40;;;;;;;;;;5096312;28;20476;-74
2022/01/26 03:03:49;;;;;;;18.20;9.25;;;;;;;;;;5079945;28;20434;-74
2022/01/26 03:06:21;;;;;;;18.15;9.30;;;;;;;;;;5096697;28;20088;-75
2022/01/26 03:08:54;;;;;;;18.20;8.85;;;;;;;;;;5094842;28;20024;-74
2022/01/26 03:11:26;;;;;;;16.80;8.63;;;;;;;;;;5094780;28;20028;-77
2022/01/26 03:13:59;;;;;;;19.23;9.05;;;;;;;;;;5096037;28;20024;-74
2022/01/26 03:16:41;;;;;;;19.80;9.38;;;;;;;;;;5094724;28;20039;-75
2022/01/26 03:19:46;;;;;;;21.65;9.23;;;;;;;;;;5096458;28;20039;-75
2022/01/26 03:30:19;;;;;;;18.30;9.30;;;;;;;;;;5095625;28;20047;-75
2022/01/26 03:33:09;;;;;;;19.67;10.32;;;;;;;;;;5095558;28;20362;-76
2022/01/26 03:35:49;;;;;;;17.58;9.43;;;;;;;;;;5095580;28;20016;-75
2022/01/26 03:38:40;;;;;;;19.08;9.65;;;;;;;;;;5094223;28;20333;-75
2022/01/26 03:41:26;;;;;;;20.20;9.55;;;;;;;;;;5095926;28;20020;-74
2022/01/26 03:43:53;;;;;;;16.63;8.93;;;;;;;;;;5094018;28;20561;-76
2022/01/26 03:46:19;;;;;;;19.10;9.38;;;;;;;;;;5093983;28;20369;-74
2022/01/26 03:48:46;;;;;;;20.05;9.40;;;;;;;;;;5094043;28;20030;-74
2022/01/26 03:51:12;;;;;;;18.92;9.60;;;;;;;;;;5095223;28;20020;-74
2022/01/26 03:53:38;;;;;;;20.48;9.50;;;;;;;;;;5093756;28;20032;-75
2022/01/26 03:56:05;;;;;;;19.45;9.55;;;;;;;;;;5095217;28;20492;-76
2022/01/26 03:58:31;;;;;;;20.42;9.75;;;;;;;;;;5095069;28;20032;-74
2022/01/26 04:00:58;;;;;;;18.88;9.48;;;;;;;;;;5095081;28;20501;-76
2022/01/26 04:03:24;;;;;;;20.52;9.00;;;;;;;;;;5094936;28;20068;-74
2022/01/26 04:05:50;;;;;;;18.73;9.43;;;;;;;;;;5093678;28;20476;-74
2022/01/26 04:08:23;;;;;;;17.17;8.50;;;;;;;;;;5094955;28;20065;-75
2022/01/26 04:13:22;;;;;;;16.30;8.43;;;;;;;;;;5094860;28;20269;-74
2022/01/26 04:15:48;;;;;;;17.33;8.70;;;;;;;;;;5093462;28;20032;-73
2022/01/26 04:18:20;;;;;;;20.48;9.27;;;;;;;;;;5093587;28;20043;-74
2022/01/26 04:20:50;;;;;;;16.25;8.25;;;;;;;;;;5095159;28;20368;-74
2022/01/26 04:23:24;;;;;;;19.10;8.45;;;;;;;;;;5093182;28;20028;-75
2022/01/26 04:25:52;;;;;;;18.77;8.63;;;;;;;;;;5093252;28;20416;-74
2022/01/26 04:28:25;;;;;;;16.70;8.35;;;;;;;;;;5094361;28;20089;-73
2022/01/26 04:30:52;;;;;;;15.75;7.95;;;;;;;;;;5093205;28;20024;-74
2022/01/26 04:33:18;;;;;;;15.20;7.68;;;;;;;;;;5094980;28;20035;-74
2022/01/26 04:35:46;;;;;;;18.30;8.45;;;;;;;;;;5093113;28;20422;-74
2022/01/26 04:38:29;;;;;;;16.42;8.00;;;;;;;;;;5093121;28;20047;-74
2022/01/26 04:44:08;;;;;;;19.27;8.90;;;;;;;;;;5051934;28;20029;-74
2022/01/26 04:46:34;;;;;;;;;;;;;;;;;;5035691;28;20496;-74
2022/01/26 04:49:00;;;;;;;19.42;8.50;;;;;;;;;;5073665;28;20300;-74
2022/01/26 04:51:27;;;;;;;17.60;8.55;;;;;;;;;;5092755;28;20027;-74
2022/01/26 04:53:53;;;;;;;16.35;8.57;;;;;;;;;;5094094;28;20019;-75
2022/01/26 04:56:19;;;;;;;21.35;9.73;;;;;;;;;;5094512;28;20023;-74
2022/01/26 04:58:46;;;;;;;20.85;9.27;;;;;;;;;;5092685;28;20032;-76
2022/01/26 05:01:12;;;;;;;18.13;9.05;;;;;;;;;;5094269;28;20127;-74
2022/01/26 05:03:39;;;;;;;19.00;10.23;;;;;;;;;;5093440;28;19919;-74
2022/01/26 05:06:05;;;;;;;18.27;9.50;;;;;;;;;;5093762;28;20063;-75
2022/01/26 05:08:32;;;;;;;18.08;9.50;;;;;;;;;;5092513;28;20026;-74
2022/01/26 05:10:59;;;;;;;18.33;8.98;;;;;;;;;;5093677;28;20072;-74
2022/01/26 05:13:25;;;;;;;18.48;9.32;;;;;;;;;;5094213;28;20019;-74
2022/01/26 05:15:51;;;;;;;18.75;9.48;;;;;;;;;;5092384;28;20019;-74
2022/01/26 05:18:17;;;;;;;19.85;10.00;;;;;;;;;;5092434;28;20174;-75
2022/01/26 05:20:44;;;;;;;18.25;9.15;;;;;;;;;;5092256;28;20111;-74
2022/01/26 05:23:10;;;;;;;18.15;9.35;;;;;;;;;;5093552;28;20046;-74
2022/01/26 05:25:36;;;;;;;18.00;8.77;;;;;;;;;;5094172;28;20028;-75
2022/01/26 05:28:03;;;;;;;17.50;9.30;;;;;;;;;;5092147;28;20127;-76
2022/01/26 05:30:29;;;;;;;17.80;9.25;;;;;;;;;;5093765;28;20028;-74
2022/01/26 05:32:56;;;;;;;22.48;10.73;;;;;;;;;;5094112;28;20020;-74
2022/01/26 05:35:22;;;;;;;18.65;8.85;;;;;;;;;;5093485;28;20032;-74
2022/01/26 05:37:48;;;;;;;20.88;10.52;;;;;;;;;;5092130;28;20384;-75
2022/01/26 05:40:15;;;;;;;19.50;9.88;;;;;;;;;;5093349;28;20024;-74
2022/01/26 05:42:41;;;;;;;20.08;8.80;;;;;;;;;;5092047;28;20032;-76
2022/01/26 05:45:18;;;;;;;17.10;8.50;;;;;;;;;;5093353;28;20028;-74
2022/01/26 05:47:44;;;;;;;17.77;9.10;;;;;;;;;;5092326;28;20024;-73
2022/01/26 05:50:10;;;;;;;18.95;8.75;;;;;;;;;;5093579;28;20028;-73
2022/01/26 05:52:37;;;;;;;17.98;9.55;;;;;;;;;;5092016;28;20028;-76
2022/01/26 05:55:03;;;;;;;17.10;7.85;;;;;;;;;;5093751;28;20504;-73
2022/01/26 05:57:29;;;;;;;17.15;8.80;;;;;;;;;;5093670;28;20035;-74
2022/01/26 05:59:56;;;;;;;21.17;10.13;;;;;;;;;;5093840;28;20447;-75
2022/01/26 06:02:22;;;;;;;17.85;9.02;;;;;;;;;;5093018;28;20042;-73
2022/01/26 06:04:48;;;;;;;19.80;8.63;;;;;;;;;;5093141;28;20072;-72
2022/01/26 06:07:15;;;;;;;19.73;9.55;;;;;;;;;;5091933;28;20461;-73
2022/01/26 06:09:41;;;;;;;22.02;10.45;;;;;;;;;;5091830;28;20063;-72
2022/01/26 06:12:07;;;;;;;18.48;9.15;;;;;;;;;;5093129;28;20050;-74
2022/01/26 06:14:35;;;;;;;20.40;9.55;;;;;;;;;;5093042;28;20023;-73
2022/01/26 06:17:01;;;;;;;18.70;9.20;;;;;;;;;;5095162;28;20050;-74
2022/01/26 06:19:27;;;;;;;18.30;9.10;;;;;;;;;;5095630;28;20074;-73
2022/01/26 06:21:54;;;;;;;17.85;8.77;;;;;;;;;;5095498;28;20111;-73
2022/01/26 06:24:20;;;;;;;19.25;9.43;;;;;;;;;;5097431;28;20035;-73
2022/01/26 06:26:46;;;;;;;19.70;9.27;;;;;;;;;;5096522;28;20070;-71
2022/01/26 06:29:12;;;;;;;20.45;9.93;;;;;;;;;;5093247;28;20028;-70
2022/01/26 06:31:41;;;;;;;18.80;9.90;;;;;;;;;;5096859;28;20031;-71
2022/01/26 06:34:10;;;;;;;18.60;10.05;;;;;;;;;;5095605;28;20032;-70
2022/01/26 06:36:37;;;;;;;20.08;9.35;;;;;;;;;;5095246;28;20063;-71
2022/01/26 06:39:04;;;;;;;17.75;9.07;;;;;;;;;;5096426;28;20024;-72
2022/01/26 06:41:30;;;;;;;16.90;7.97;;;;;;;;;;5095090;28;20032;-72
2022/01/26 06:44:14;;;;;;;26.85;12.27;;;;;;;;;;5095183;28;20110;-72
2022/01/26 06:46:56;;;;;;;31.02;13.80;;;;;;;;;;5095140;28;20610;-71
2022/01/26 06:51:48;;;;;;;28.05;12.02;;;;;;;;;;5096262;28;20391;-71
2022/01/26 06:54:15;;;;;;;22.30;9.85;;;;;;;;;;5096501;28;20069;-73
2022/01/26 06:56:41;;;;;;;48.40;20.38;;;;;;;;;;5094945;28;20020;-72
2022/01/26 06:59:07;;;;;;;32.75;14.48;;;;;;;;;;5094906;28;20439;-71
2022/01/26 07:01:33;;;;;;;52.40;19.98;;;;;;;;;;5095878;28;20392;-72
2022/01/26 07:03:59;;;;;;;20.77;9.95;;;;;;;;;;5096027;28;20028;-72
2022/01/26 07:06:25;;;;;;;33.25;13.98;;;;;;;;;;5096013;28;20050;-73
2022/01/26 07:08:51;;;;;;;20.80;9.60;;;;;;;;;;5094673;28;20541;-72
2022/01/26 07:11:17;;;;;;;44.42;16.85;;;;;;;;;;5095981;28;20059;-73
2022/01/26 07:13:45;;;;;;;40.22;15.23;;;;;;;;;;5094546;28;20028;-71
2022/01/26 07:21:40;;;;;;;20.15;11.23;;;;;;;;;;5095821;28;20093;-71
2022/01/26 07:24:06;;;;;;;15.65;7.10;;;;;;;;;;5094389;28;20047;-71
2022/01/26 07:26:32;;;;;;;16.90;8.30;;;;;;;;;;5093989;28;20062;-72
2022/01/26 07:29:00;;;;;;;19.08;9.95;;;;;;;;;;5093968;28;20074;-72
2022/01/26 07:31:26;;;;;;;23.17;9.98;;;;;;;;;;5094143;28;20047;-71
2022/01/26 07:33:57;;;;;;;18.00;10.45;;;;;;;;;;5094168;28;20024;-71
2022/01/26 07:36:24;;;;;;;21.33;9.50;;;;;;;;;;5094243;28;20028;-71
2022/01/26 07:38:51;;;;;;;17.85;8.95;;;;;;;;;;5094088;28;20024;-71
2022/01/26 07:41:18;;;;;;;17.23;9.13;;;;;;;;;;5094130;28;20085;-71
2022/01/26 07:43:44;;;;;;;17.30;8.70;;;;;;;;;;5095285;28;20039;-74
2022/01/26 07:46:10;;;;;;;17.13;8.27;;;;;;;;;;5094005;28;20055;-75
2022/01/26 07:48:37;;;;;;;16.05;7.88;;;;;;;;;;5093938;28;20035;-73
2022/01/26 07:51:03;;;;;;;15.65;8.73;;;;;;;;;;5093881;28;20031;-73
2022/01/26 07:53:29;;;;;;;15.93;8.00;;;;;;;;;;5093564;28;20128;-72
2022/01/26 07:55:56;;;;;;;18.63;8.95;;;;;;;;;;5093813;28;20024;-72
2022/01/26 07:58:23;;;;;;;15.63;8.55;;;;;;;;;;5093653;28;20214;-72
2022/01/26 08:00:49;;;;;;;17.13;8.50;;;;;;;;;;5094889;28;20040;-72
2022/01/26 08:03:15;;;;;;;15.20;7.85;;;;;;;;;;5093755;28;20032;-74
2022/01/26 08:05:42;;;;;;;15.65;7.95;;;;;;;;;;5093505;28;20036;-73
2022/01/26 08:08:08;;;;;;;15.40;7.70;;;;;;;;;;5094940;28;20483;-73
2022/01/26 08:10:34;;;;;;;16.42;8.57;;;;;;;;;;5093470;28;20024;-73
2022/01/26 08:13:00;;;;;;;15.25;7.38;;;;;;;;;;5093513;28;20032;-73
2022/01/26 08:15:27;;;;;;;17.52;7.93;;;;;;;;;;5093364;28;20024;-73
2022/01/26 08:17:53;;;;;;;18.45;8.18;;;;;;;;;;5093339;28;20122;-74
2022/01/26 08:20:21;;;;;;;16.05;7.07;;;;;;;;;;5094997;28;20026;-73
2022/01/26 08:22:47;;;;;;;15.60;7.43;;;;;;;;;;5093153;28;20036;-73
2022/01/26 08:25:13;;;;;;;13.48;6.78;;;;;;;;;;5093282;28;20020;-73
2022/01/26 08:27:44;;;;;;;12.10;5.78;;;;;;;;;;5092723;28;20460;-72
2022/01/26 08:30:14;;;;;;;12.10;5.88;;;;;;;;;;5093195;28;20032;-72
2022/01/26 08:32:42;;;;;;;12.05;5.65;;;;;;;;;;5094700;28;20109;-72
2022/01/26 08:35:08;;;;;;;14.75;6.28;;;;;;;;;;5093127;28;20024;-73
2022/01/26 08:37:35;;;;;;;12.95;5.30;;;;;;;;;;5092937;28;20032;-73
2022/01/26 08:40:01;;;;;;;13.25;5.97;;;;;;;;;;5092033;28;20020;-73
2022/01/26 08:42:27;;;;;;;11.43;5.85;;;;;;;;;;5092901;28;20050;-72
2022/01/26 08:44:53;;;;;;;12.20;5.68;;;;;;;;;;5094312;28;20434;-71
2022/01/26 08:47:19;;;;;;;10.50;4.90;;;;;;;;;;5092832;28;20024;-71
2022/01/26 08:52:21;;;;;;;9.77;4.88;;;;;;;;;;5344592;22;20521;-72
2022/01/26 08:54:48;;;;;;;12.50;5.57;;;;;;;;;;5014965;28;20529;-72
2022/01/26 08:57:14;;;;;;;11.60;5.07;;;;;;;;;;5014254;28;20428;-72
2022/01/26 08:59:40;;;;;;;10.50;5.35;;;;;;;;;;5012587;28;20489;-71
2022/01/26 09:02:07;;;;;;;13.30;5.30;;;;;;;;;;5012519;28;20043;-71
2022/01/26 09:04:33;;;;;;;13.10;5.22;;;;;;;;;;5012632;28;20393;-71
2022/01/26 09:07:01;;;;;;;12.88;6.05;;;;;;;;;;5013875;28;20033;-71
2022/01/26 09:09:31;;;;;;;11.50;4.65;;;;;;;;;;5012608;28;20573;-71
2022/01/26 09:11:59;;;;;;;11.60;5.18;;;;;;;;;;5012430;28;20026;-71
2022/01/26 09:14:28;;;;;;;11.38;3.67;;;;;;;;;;5014113;28;20105;-71
2022/01/26 09:16:55;;;;;;;8.52;3.40;;;;;;;;;;5012468;28;20025;-71
2022/01/26 09:19:29;;;;;;;11.30;4.82;;;;;;;;;;5012686;28;20087;-71
2022/01/26 09:21:57;;;;;;;9.93;4.05;;;;;;;;;;5012595;28;20030;-71
2022/01/26 09:24:25;;;;;;;10.13;4.30;;;;;;;;;;5012357;28;20045;-71
2022/01/26 09:26:51;;;;;;;10.65;4.47;;;;;;;;;;5012242;28;20022;-71
2022/01/26 09:29:17;;;;;;;17.25;5.20;;;;;;;;;;5012219;28;20470;-71
2022/01/26 09:31:47;;;;;;;8.25;3.50;;;;;;;;;;5013352;28;20038;-70
2022/01/26 09:34:14;;;;;;;8.88;3.63;;;;;;;;;;5014248;28;20092;-69
2022/01/26 09:36:40;;;;;;;7.30;3.42;;;;;;;;;;5013338;28;20052;-69
2022/01/26 09:39:06;;;;;;;7.78;3.30;;;;;;;;;;5013471;28;20025;-71
2022/01/26 09:41:32;;;;;;;9.85;4.15;;;;;;;;;;5013451;28;20128;-71
2022/01/26 09:44:02;;;;;;;9.02;3.83;;;;;;;;;;5012046;28;20034;-71
2022/01/26 09:46:29;;;;;;;9.35;3.75;;;;;;;;;;5013333;28;20108;-71
2022/01/26 09:48:55;;;;;;;11.35;3.97;;;;;;;;;;5012097;28;20026;-71
2022/01/26 09:51:21;;;;;;;8.45;3.50;;;;;;;;;;5014616;28;20069;-71
2022/01/26 09:54:01;;;;;;;8.82;4.13;;;;;;;;;;5017249;28;20040;-71
2022/01/26 09:56:27;;;;;;;8.55;4.10;;;;;;;;;;5017283;28;20525;-71
2022/01/26 09:58:53;;;;;;;9.65;3.92;;;;;;;;;;5015961;28;20103;-71
2022/01/26 10:01:19;;;;;;;8.85;4.35;;;;;;;;;;5017227;28;20018;-71
2022/01/26 10:03:46;;;;;;;10.02;3.50;;;;;;;;;;5015783;28;20037;-71
2022/01/26 10:06:22;;;;;;;8.27;3.38;;;;;;;;;;5015832;28;20080;-71
2022/01/26 10:19:01;;;;;;;11.57;5.20;;;;;;;;;;5017266;28;20101;-71
2022/01/26 10:21:27;;;;;;;10.85;4.70;;;;;;;;;;5016961;28;20386;-71
2022/01/26 10:23:56;;;;;;;11.68;4.60;;;;;;;;;;5015535;28;20467;-71
2022/01/26 10:26:23;;;;;;;10.18;4.75;;;;;;;;;;5015553;28;20105;-71
2022/01/26 10:28:53;;;;;;;9.05;4.82;;;;;;;;;;5015476;28;20033;-78
2022/01/26 10:31:21;;;;;;;11.63;5.43;;;;;;;;;;5015371;28;20084;-72
2022/01/26 10:33:55;;;;;;;11.35;5.65;;;;;;;;;;5015289;28;20026;-73
2022/01/26 10:36:21;;;;;;;10.77;5.55;;;;;;;;;;5015316;28;20018;-73
2022/01/26 10:39:01;;;;;;;10.85;4.85;;;;;;;;;;5015198;28;20120;-73
2022/01/26 10:41:27;;;;;;;12.10;5.90;;;;;;;;;;5015227;28;20033;-73
2022/01/26 10:43:56;;;;;;;17.58;9.10;;;;;;;;;;5015078;28;20026;-74
2022/01/26 10:46:31;;;;;;;16.10;6.78;;;;;;;;;;5015250;28;20029;-76
2022/01/26 10:49:42;;;;;;;12.77;6.32;;;;;;;;;;4995537;28;20030;-76
2022/01/26 10:52:27;;;;;;;13.45;6.47;;;;;;;;;;5011561;28;20494;-73
2022/01/26 10:54:54;;;;;;;13.45;6.68;;;;;;;;;;4995354;28;20072;-78
2022/01/26 10:57:20;;;;;;;18.55;8.50;;;;;;;;;;4995332;28;20068;-73
2022/01/26 10:59:50;;;;;;;15.55;7.43;;;;;;;;;;4995144;28;20061;-72
2022/01/26 11:02:21;;;;;;;13.52;6.45;;;;;;;;;;4994253;28;20038;-80
2022/01/26 11:04:47;;;;;;;14.13;6.40;;;;;;;;;;4996610;28;20018;-82
2022/01/26 11:07:15;;;;;;;16.77;7.25;;;;;;;;;;4995226;28;20066;-72
2022/01/26 11:09:43;;;;;;;15.73;7.95;;;;;;;;;;4995050;28;20501;-81
2022/01/26 11:12:10;;;;;;;15.68;7.22;;;;;;;;;;4995348;28;20095;-70
2022/01/26 11:14:43;;;;;;;15.27;7.10;;;;;;;;;;4996319;28;20105;-82
2022/01/26 11:17:10;;;;;;;15.60;6.53;;;;;;;;;;4994975;28;20069;-72
2022/01/26 11:19:43;;;;;;;12.38;5.78;;;;;;;;;;4996377;28;20018;-70
2022/01/26 11:22:10;;;;;;;15.07;7.57;;;;;;;;;;4994866;28;20030;-71
2022/01/26 11:24:43;;;;;;;13.80;7.15;;;;;;;;;;4994984;28;20026;-81
2022/01/26 11:27:09;;;;;;;16.85;7.85;;;;;;;;;;4996137;28;20033;-71
2022/01/26 11:29:41;;;;;;;12.80;6.55;;;;;;;;;;4996067;28;20030;-70
2022/01/26 11:32:12;;;;;;;13.32;6.85;;;;;;;;;;4995995;28;20030;-70
2022/01/26 11:34:39;;;;;;;13.23;6.30;;;;;;;;;;4994685;28;20045;-70
2022/01/26 11:37:14;;;;;;;16.42;6.50;;;;;;;;;;4995880;28;20077;-81
2022/01/26 11:45:13;;;;;;;12.85;5.88;;;;;;;;;;4995704;28;20408;-80
2022/01/26 11:47:41;;;;;;;13.77;7.10;;;;;;;;;;5004492;28;20029;-78
2022/01/26 11:50:09;;;;;;;12.95;6.43;;;;;;;;;;5013876;28;20501;-78
2022/01/26 11:52:37;;;;;;;15.13;7.03;;;;;;;;;;5013366;28;20056;-78
2022/01/26 11:55:19;;;;;;;17.23;6.85;;;;;;;;;;5013834;28;20022;-73
2022/01/26 11:57:52;;;;;;;14.65;7.03;;;;;;;;;;5015244;28;20113;-78
2022/01/26 12:00:35;;;;;;;16.75;6.78;;;;;;;;;;5013996;28;20105;-73
2022/01/26 12:03:01;;;;;;;15.50;6.37;;;;;;;;;;5013726;28;20446;-76
2022/01/26 12:05:28;;;;;;;13.15;6.70;;;;;;;;;;5013620;28;20056;-78
2022/01/26 12:07:55;;;;;;;16.48;6.32;;;;;;;;;;5014839;28;20028;-75
2022/01/26 12:10:29;;;;;;;14.65;6.68;;;;;;;;;;5013634;28;20053;-73
2022/01/26 12:13:10;;;;;;;15.68;6.75;;;;;;;;;;5013677;28;20028;-72
2022/01/26 12:15:48;;;;;;;12.77;6.13;;;;;;;;;;5013567;28;20425;-74
2022/01/26 12:18:31;;;;;;;12.18;6.18;;;;;;;;;;5014931;28;20026;-73
2022/01/26 12:34:40;;;;;;;8.85;4.18;;;;;;;;;;5015174;28;20069;-74
2022/01/26 12:42:54;;;;;;;7.93;3.17;;;;;;;;;;5014373;28;20072;-71
2022/01/26 12:45:22;;;;;;;12.05;4.00;;;;;;;;;;5014500;28;20422;-70
2022/01/26 12:47:49;;;;;;;8.57;3.55;;;;;;;;;;5013861;28;20036;-79
2022/01/26 12:50:15;;;;;;;10.95;4.30;;;;;;;;;;5012904;28;20038;-70
2022/01/26 12:52:44;;;;;;;10.90;4.30;;;;;;;;;;5012644;28;20052;-70
2022/01/26 12:55:19;;;;;;;9.43;3.38;;;;;;;;;;5013086;28;20030;-80
2022/01/26 12:57:45;;;;;;;8.70;3.83;;;;;;;;;;5012659;28;20125;-70
2022/01/26 13:00:12;;;;;;;9.10;4.43;;;;;;;;;;5013988;28;20105;-71
2022/01/26 13:02:38;;;;;;;10.77;4.30;;;;;;;;;;5013952;28;20038;-77
2022/01/26 13:05:04;;;;;;;9.20;4.10;;;;;;;;;;5012565;28;20055;-77
2022/01/26 13:07:31;;;;;;;8.90;3.95;;;;;;;;;;5012515;28;20038;-71
2022/01/26 13:09:57;;;;;;;10.98;3.95;;;;;;;;;;5013755;28;20026;-71
2022/01/26 13:12:33;;;;;;;13.95;3.85;;;;;;;;;;5012627;28;20068;-72
2022/01/26 13:15:06;;;;;;;7.60;3.88;;;;;;;;;;5013799;28;20034;-81
2022/01/26 13:17:39;;;;;;;;;;;;;;;;;;5012927;28;20102;-78
2022/01/26 13:25:20;;;;;;;12.05;5.85;;;;;;;;;;5013383;28;19987;-83
2022/01/26 13:28:20;;;;;;;13.15;5.75;;;;;;;;;;5012463;28;20034;-80
2022/01/26 13:36:36;;;;;;;11.77;5.93;;;;;;;;;;4992322;28;20072;-71
2022/01/26 13:39:15;;;;;;;;;;;;;;;;;;5012536;28;20033;-74
2022/01/26 13:42:17;;;;;;;14.05;6.47;;;;;;;;;;5012092;28;19906;-75
2022/01/26 13:50:03;;;;;;;14.88;7.38;;;;;;;;;;5013656;28;20084;-76
2022/01/26 14:00:06;;;;;;;14.07;6.30;;;;;;;;;;5013149;28;20084;-71
2022/01/26 14:02:34;;;;;;;15.13;7.00;;;;;;;;;;5011946;28;20030;-72
2022/01/26 14:05:00;;;;;;;14.93;6.63;;;;;;;;;;5011867;28;20108;-72
2022/01/26 14:07:26;;;;;;;11.43;6.38;;;;;;;;;;5011935;28;20080;-71
2022/01/26 14:09:52;;;;;;;11.90;5.97;;;;;;;;;;5011862;28;20022;-72
2022/01/26 14:12:24;;;;;;;16.38;6.97;;;;;;;;;;5011951;28;20038;-73
2022/01/26 14:14:54;;;;;;;12.90;6.10;;;;;;;;;;5012361;28;20025;-73
2022/01/26 14:17:33;;;;;;;15.52;6.38;;;;;;;;;;5011900;28;20057;-74
2022/01/26 14:22:59;;;;;;;15.45;6.75;;;;;;;;;;5013122;28;20068;-73
2022/01/26 14:25:29;;;;;;;17.95;7.13;;;;;;;;;;5012919;28;20030;-73
2022/01/26 14:28:00;;;;;;;17.38;8.05;;;;;;;;;;5011787;28;20026;-72
2022/01/26 14:30:54;;;;;;;15.10;6.55;;;;;;;;;;5013112;28;20164;-73
2022/01/26 14:36:37;;;;;;;13.38;6.82;;;;;;;;;;5004151;28;20398;-71
2022/01/26 15:21:05;;;;;;;12.50;6.22;;;;;;;;;;5015910;28;20096;-71
2022/01/26 15:29:57;;;;;;;15.43;7.55;;;;;;;;;;5015817;28;20383;-71
2022/01/26 15:34:15;;;;;;;15.65;7.05;;;;;;;;;;4996182;28;20049;-71
2022/01/26 15:50:39;;;;;;;17.15;7.88;;;;;;;;;;5015385;28;20084;-74
2022/01/26 15:53:18;;;;;;;20.23;8.75;;;;;;;;;;5013807;28;20092;-80
2022/01/26 15:58:45;;;;;;;19.90;9.43;;;;;;;;;;5014624;28;20418;-71
2022/01/26 16:20:35;;;;;;;22.83;10.15;;;;;;;;;;5014820;28;20026;-73
2022/01/26 16:44:19;;;;;;;18.90;9.30;;;;;;;;;;5014490;28;20030;-72
2022/01/26 18:04:29;;;;;;;;;;;;;;;;;;4953256;29;20049;-75
2022/01/26 18:07:17;;;;;;;21.60;8.80;;;;;;;;;;4952699;28;19938;-75
2022/01/26 18:15:37;;;;;;;20.80;8.98;;;;;;;;;;4997633;28;20037;-74
2022/01/26 18:26:26;;;;;;;21.35;8.98;;;;;;;;;;4997435;28;20073;-74
2022/01/26 18:50:41;;;;;;;22.02;9.43;;;;;;;;;;4997201;28;20080;-74
2022/01/26 18:53:08;;;;;;;21.50;9.93;;;;;;;;;;4996464;28;20050;-74
2022/01/26 18:55:35;;;;;;;20.40;9.18;;;;;;;;;;4996810;28;20033;-74
2022/01/26 18:58:01;;;;;;;19.08;8.75;;;;;;;;;;4995501;28;20475;-73
2022/01/26 19:00:27;;;;;;;22.00;9.98;;;;;;;;;;4995535;28;20487;-73
2022/01/26 19:02:53;;;;;;;22.10;9.75;;;;;;;;;;4995363;28;20030;-72
2022/01/26 19:05:20;;;;;;;20.13;9.52;;;;;;;;;;4995402;28;20041;-72
2022/01/26 19:07:46;;;;;;;21.75;10.25;;;;;;;;;;4995390;28;20493;-72
2022/01/26 19:10:12;;;;;;;20.83;10.13;;;;;;;;;;4996656;28;20313;-72
2022/01/26 19:12:42;;;;;;;22.33;10.05;;;;;;;;;;4995257;28;20036;-75
2022/01/26 19:15:12;;;;;;;23.23;11.05;;;;;;;;;;4995175;28;20026;-74
2022/01/26 19:17:46;;;;;;;24.40;10.68;;;;;;;;;;4995509;28;20590;-72
2022/01/26 19:20:26;;;;;;;23.02;10.80;;;;;;;;;;4996426;28;20030;-72
2022/01/26 19:23:05;;;;;;;24.10;10.68;;;;;;;;;;4995486;28;20377;-73
2022/01/26 19:25:37;;;;;;;24.52;10.93;;;;;;;;;;4995118;28;20030;-73
2022/01/26 19:33:28;;;;;;;22.05;11.00;;;;;;;;;;4996116;28;20097;-72
2022/01/26 19:44:18;;;;;;;22.10;10.68;;;;;;;;;;4995946;28;20130;-72
2022/01/26 19:52:13;;;;;;;22.95;11.32;;;;;;;;;;4996025;28;20114;-74
2022/01/26 19:54:41;;;;;;;27.30;11.55;;;;;;;;;;4994489;28;20068;-72
2022/01/26 19:57:08;;;;;;;24.88;10.70;;;;;;;;;;4995739;28;20041;-74
2022/01/26 19:59:35;;;;;;;20.08;9.95;;;;;;;;;;4994440;28;20567;-74
2022/01/26 20:02:01;;;;;;;24.10;10.18;;;;;;;;;;4994244;28;20030;-73
2022/01/26 20:04:30;;;;;;;20.92;10.10;;;;;;;;;;4995692;28;20428;-71
2022/01/26 20:07:00;;;;;;;24.90;10.75;;;;;;;;;;4994319;28;20022;-71
2022/01/26 20:09:32;;;;;;;24.45;10.60;;;;;;;;;;4994551;28;20057;-71
2022/01/26 20:12:02;;;;;;;23.35;10.40;;;;;;;;;;4994272;28;20225;-71
2022/01/26 20:14:36;;;;;;;21.88;10.38;;;;;;;;;;4994287;28;20080;-76
2022/01/26 20:17:06;;;;;;;20.40;9.60;;;;;;;;;;4995624;28;20015;-71
2022/01/26 20:19:33;;;;;;;20.55;9.75;;;;;;;;;;4995400;28;20130;-81
2022/01/26 20:21:59;;;;;;;24.73;10.77;;;;;;;;;;4995371;28;20080;-80
2022/01/26 20:24:26;;;;;;;22.52;10.65;;;;;;;;;;4994032;28;20545;-75
2022/01/26 20:26:53;;;;;;;24.13;11.15;;;;;;;;;;4995287;28;20383;-71
2022/01/26 20:29:24;;;;;;;25.58;10.80;;;;;;;;;;4994037;28;20026;-72
2022/01/26 20:31:50;;;;;;;25.20;11.18;;;;;;;;;;4993942;28;20029;-73
2022/01/26 20:34:16;;;;;;;24.73;10.60;;;;;;;;;;4995052;28;20489;-73
2022/01/26 20:36:43;;;;;;;19.95;10.10;;;;;;;;;;4993783;28;20037;-73
2022/01/26 20:39:09;;;;;;;39.22;16.75;;;;;;;;;;4993671;28;20026;-73
2022/01/26 20:41:35;;;;;;;36.42;15.98;;;;;;;;;;4994660;28;20054;-73
2022/01/26 20:44:01;;;;;;;23.77;10.85;;;;;;;;;;4993572;28;20073;-73
2022/01/26 20:46:28;;;;;;;19.30;9.77;;;;;;;;;;4997334;28;20468;-73
2022/01/26 20:48:54;;;;;;;26.27;11.75;;;;;;;;;;5000239;28;20026;-72
2022/01/26 20:51:20;;;;;;;26.73;12.32;;;;;;;;;;4996095;28;20093;-72
2022/01/26 20:53:47;;;;;;;24.40;10.07;;;;;;;;;;4995531;28;20379;-71
2022/01/26 20:56:16;;;;;;;25.42;11.55;;;;;;;;;;4993424;28;20049;-72
2022/01/26 20:58:43;;;;;;;25.33;10.95;;;;;;;;;;4993482;28;20041;-72
2022/01/26 21:01:09;;;;;;;24.73;10.75;;;;;;;;;;4994479;28;20030;-72
2022/01/26 21:03:36;;;;;;;18.67;10.20;;;;;;;;;;4993172;28;20510;-72
2022/01/26 21:06:02;;;;;;;24.92;11.48;;;;;;;;;;4994435;28;20483;-72
2022/01/26 21:08:29;;;;;;;20.90;10.45;;;;;;;;;;4993246;28;20037;-74
2022/01/26 21:10:55;;;;;;;22.25;10.70;;;;;;;;;;4994903;28;20030;-72
2022/01/26 21:13:21;;;;;;;22.90;11.30;;;;;;;;;;4993072;28;20030;-74
2022/01/26 21:15:48;;;;;;;21.60;10.65;;;;;;;;;;4994338;28;20045;-75
2022/01/26 21:18:16;;;;;;;21.73;11.70;;;;;;;;;;4993248;28;20030;-75
2022/01/26 21:20:42;;;;;;;26.88;12.65;;;;;;;;;;4994337;28;20106;-75